Walled Lake, MI

3:00 PM EST on January 27, 2015 (GMT -0500)
Oakland County International | Change Station
CLOSE
Current Station
Airport
Location: Pontiac,
Elevation: 981 ft
Nearby Weather Stations

Elev 981 ft 42.67 °N, 83.42 °W | Updated 7 minutes ago

Clear
Clear
25 °F
Feels Like 15 °F
N
10
Wind Variable Wind from North

Today
High -- | Low -- °F
--% Chance of Precip.
Yesterday
High -- | Low -- °F
Precip. -- in
7:52 AM 5:40 PM
First Quarter, 57% visible
Pressure 30.14 in
Visibility 10.0 miles
Clouds Few 3000 ft
Windchill 15 °F
Dew Point 10 °F
Humidity 53%
Rainfall 0.00 in
Snow Depth Not available.
UV 2 out of 12
Pollen .10 out of 12
Air Quality Not available.
Flu Activity Not available.
METAR KPTK 271953Z 01009KT 10SM FEW030 M04/M12 A3009 RMK AO2 SLP206 T10391122

More Conditions Fewer Conditions

Pressure 30.14 in
Visibility 10.0 miles
Clouds Few 3000 ft
Windchill 15 °F
Dew Point 10 °F
Humidity 53%
Rainfall 0.00 in
Snow Depth Not available.
UV 2 out of 12
Pollen .10 out of 12
Air Quality Not available.
Flu Activity Not available.
METAR KPTK 271953Z 01009KT 10SM FEW030 M04/M12 A3009 RMK AO2 SLP206 T10391122

More Conditions Fewer Conditions

10-Day Weather Forecast

Almanac

Astronomy

Jan. 27, 2015 Rise Set
Actual Time
Civil Twilight
Nautical Twilight
Astronomical Twilight
Moon
Length of Visible Light
Length of Day
Tomorrow will be .
, % of the Moon is Illuminated

Today's Extremes

State Highs State Lows

Community

WunderPhotos

Upload Photos

1,790,874 photos uploaded!

WunderBlogs® & News

Nearby

Air Quality

  Air Quality AQ Index Pollutant
Not available.

Snow Depth

Station Depth Elevation

Earthquake Activity

City Distance Mag. Time & Date
Minimum magnitude displayed is 2.5.

Coastal Water Temperatures

Place Temperature

Nearby Weather Stations